createdAt,value
2018-05-01T00:00:51.983Z,0.00
2018-05-01T00:01:51.949Z,0.00
2018-05-01T00:02:51.887Z,0.00
2018-05-01T00:03:51.936Z,0.00
2018-05-01T00:04:51.999Z,0.00
2018-05-01T00:05:51.890Z,0.00
2018-05-01T00:06:51.971Z,0.00
2018-05-01T00:07:51.971Z,0.00
2018-05-01T00:08:51.971Z,0.00
2018-05-01T00:09:51.937Z,0.00
2018-05-01T00:10:52.006Z,0.00
2018-05-01T00:11:51.898Z,0.00
2018-05-01T00:12:51.933Z,0.00
2018-05-01T00:13:51.910Z,0.00
2018-05-01T00:14:51.976Z,0.00
2018-05-01T00:15:51.978Z,0.00
2018-05-01T00:16:51.986Z,0.00
2018-05-01T00:17:51.921Z,0.00
2018-05-01T00:18:51.909Z,0.00
2018-05-01T00:19:51.979Z,0.00
2018-05-01T00:20:51.913Z,0.00
2018-05-01T00:21:51.909Z,0.00
2018-05-01T00:22:51.983Z,0.00
2018-05-01T00:23:52.008Z,0.00
2018-05-01T00:24:52.006Z,0.00
2018-05-01T00:25:51.981Z,0.00
2018-05-01T00:26:51.886Z,0.00
2018-05-01T00:27:51.906Z,0.00
2018-05-01T00:28:51.964Z,0.00
2018-05-01T00:29:51.989Z,0.00
2018-05-01T00:30:51.989Z,0.00
2018-05-01T00:31:51.903Z,0.00
2018-05-01T00:32:51.953Z,0.00
2018-05-01T00:33:52.005Z,0.00
2018-05-01T00:34:52.019Z,0.00
2018-05-01T00:35:51.887Z,0.00
2018-05-01T00:36:51.989Z,0.00
2018-05-01T00:37:51.999Z,0.00
2018-05-01T00:38:52.028Z,0.00
2018-05-01T00:39:52.054Z,0.00
2018-05-01T00:40:51.895Z,0.00
2018-05-01T00:41:51.978Z,0.00
2018-05-01T00:42:51.913Z,0.00
2018-05-01T00:43:52.050Z,0.00
2018-05-01T00:44:51.991Z,0.00
2018-05-01T00:45:51.965Z,0.00
2018-05-01T00:46:51.918Z,0.00
2018-05-01T00:47:51.975Z,0.00
2018-05-01T00:48:51.995Z,0.00
2018-05-01T00:49:51.922Z,0.00
2018-05-01T00:50:52.003Z,0.00
2018-05-01T00:51:51.971Z,0.00
2018-05-01T00:52:52.028Z,0.00
2018-05-01T00:53:51.902Z,0.00
2018-05-01T00:54:51.970Z,0.00
2018-05-01T00:55:51.973Z,0.00
2018-05-01T00:56:52.021Z,0.00
2018-05-01T00:57:52.034Z,0.00
2018-05-01T00:58:51.946Z,0.00
2018-05-01T00:59:52.008Z,0.00
2018-05-01T01:00:51.954Z,0.00
2018-05-01T01:01:52.211Z,0.00
2018-05-01T01:02:51.916Z,0.00
2018-05-01T01:03:51.941Z,0.00
2018-05-01T01:04:51.943Z,0.00
2018-05-01T01:05:52.012Z,0.00
2018-05-01T01:06:52.014Z,0.00
2018-05-01T01:07:52.019Z,0.00
2018-05-01T01:08:52.010Z,0.00
2018-05-01T01:09:51.978Z,0.00
2018-05-01T01:10:52.014Z,0.00
2018-05-01T01:11:51.941Z,0.00
2018-05-01T01:12:51.945Z,0.00
2018-05-01T01:13:51.983Z,0.00
2018-05-01T01:14:51.919Z,0.00
2018-05-01T01:15:52.043Z,0.00
2018-05-01T01:16:51.986Z,0.00
2018-05-01T01:17:51.916Z,0.00
2018-05-01T01:18:51.919Z,0.00
2018-05-01T01:19:51.943Z,0.00
2018-05-01T01:20:51.936Z,0.00
2018-05-01T01:21:52.037Z,0.00
2018-05-01T01:22:52.020Z,0.00
2018-05-01T01:23:51.950Z,0.00
2018-05-01T01:24:52.028Z,0.00
2018-05-01T01:25:51.971Z,0.00
2018-05-01T01:26:51.956Z,0.00
2018-05-01T01:27:52.026Z,0.00
2018-05-01T01:28:51.986Z,0.00
2018-05-01T01:29:51.955Z,0.00
2018-05-01T01:30:52.031Z,0.00
2018-05-01T01:31:52.028Z,0.00
2018-05-01T01:32:51.956Z,0.00
2018-05-01T01:33:52.029Z,0.00
2018-05-01T01:34:51.979Z,0.00
2018-05-01T01:35:52.035Z,0.00
2018-05-01T01:36:51.963Z,0.00
2018-05-01T01:37:52.033Z,0.00
2018-05-01T01:38:51.961Z,0.00
2018-05-01T01:39:51.961Z,0.00
2018-05-01T01:40:52.035Z,0.00
2018-05-01T01:41:51.965Z,0.00
2018-05-01T01:42:52.034Z,0.00
2018-05-01T01:43:52.031Z,0.00
2018-05-01T01:44:52.009Z,0.00
2018-05-01T01:45:52.064Z,0.00
2018-05-01T01:46:51.938Z,0.00
2018-05-01T01:47:52.002Z,0.00
2018-05-01T01:48:52.007Z,0.00
2018-05-01T01:49:52.060Z,0.00
2018-05-01T01:50:52.054Z,0.00
2018-05-01T01:51:52.006Z,0.00
2018-05-01T01:52:52.003Z,0.00
2018-05-01T01:53:52.037Z,0.00
2018-05-01T01:54:51.944Z,0.00
2018-05-01T01:55:52.067Z,0.00
2018-05-01T01:56:52.062Z,0.00
2018-05-01T01:57:52.064Z,0.00
2018-05-01T01:58:52.005Z,0.00
2018-05-01T01:59:51.944Z,0.00
2018-05-01T02:00:51.982Z,0.00
2018-05-01T02:01:51.984Z,0.00
2018-05-01T02:02:52.044Z,0.00
2018-05-01T02:03:52.015Z,0.00
2018-05-01T02:04:51.984Z,0.00
2018-05-01T02:05:52.088Z,0.00
2018-05-01T02:06:52.070Z,0.00
2018-05-01T02:07:52.053Z,0.00
2018-05-01T02:08:51.947Z,0.00
2018-05-01T02:09:52.019Z,0.00
2018-05-01T02:10:52.046Z,0.00
2018-05-01T02:11:52.021Z,0.00
2018-05-01T02:12:52.048Z,0.00
2018-05-01T02:13:52.064Z,0.00
2018-05-01T02:14:52.054Z,0.00
2018-05-01T02:15:56.269Z,0.00
2018-05-01T02:16:52.057Z,0.00
2018-05-01T02:17:51.986Z,0.00
2018-05-01T02:18:52.056Z,0.00
2018-05-01T02:19:51.989Z,0.00
2018-05-01T02:20:51.985Z,0.00
2018-05-01T02:21:51.988Z,0.00
2018-05-01T02:22:51.993Z,0.00
2018-05-01T02:23:52.020Z,0.00
2018-05-01T02:24:52.065Z,0.00
2018-05-01T02:25:52.058Z,0.00
2018-05-01T02:26:52.033Z,0.00
2018-05-01T02:27:52.116Z,0.00
2018-05-01T02:28:52.058Z,0.00
2018-05-01T02:29:52.101Z,0.00
2018-05-01T02:30:52.095Z,0.00
2018-05-01T02:31:51.991Z,0.00
2018-05-01T02:32:52.131Z,0.00
2018-05-01T02:33:52.063Z,0.00
2018-05-01T02:34:52.002Z,0.00
2018-05-01T02:35:52.064Z,0.00
2018-05-01T02:36:52.076Z,0.00
2018-05-01T02:37:52.086Z,0.00
2018-05-01T02:38:51.972Z,0.00
2018-05-01T02:39:52.105Z,0.00
2018-05-01T02:40:52.034Z,0.00
2018-05-01T02:41:52.066Z,0.00
2018-05-01T02:42:52.129Z,0.00
2018-05-01T02:43:52.074Z,0.00
2018-05-01T02:44:52.110Z,0.00
2018-05-01T02:45:52.079Z,0.00
2018-05-01T02:46:52.095Z,0.00
2018-05-01T02:47:51.999Z,0.00
2018-05-01T02:48:52.098Z,0.00
2018-05-01T02:49:52.077Z,0.00
2018-05-01T02:50:52.075Z,0.00
2018-05-01T02:51:52.076Z,0.00
2018-05-01T02:52:52.054Z,0.00
2018-05-01T02:53:52.075Z,0.00
2018-05-01T02:54:52.109Z,0.00
2018-05-01T02:55:52.077Z,0.00
2018-05-01T02:56:52.082Z,0.00
2018-05-01T02:57:52.043Z,0.00
2018-05-01T02:58:52.115Z,0.00
2018-05-01T02:59:51.994Z,0.00
2018-05-01T03:00:52.085Z,0.00
2018-05-01T03:01:52.115Z,0.00
2018-05-01T03:02:52.048Z,0.00
2018-05-01T03:03:52.007Z,0.00
2018-05-01T03:04:52.017Z,0.00
2018-05-01T03:05:52.088Z,0.00
2018-05-01T03:06:52.016Z,0.00
2018-05-01T03:07:52.087Z,0.00
2018-05-01T03:08:52.051Z,0.00
2018-05-01T03:09:52.177Z,0.00
2018-05-01T03:10:52.057Z,0.00
2018-05-01T03:11:52.019Z,0.00
2018-05-01T03:12:52.029Z,0.00
2018-05-01T03:13:52.023Z,0.00
2018-05-01T03:14:52.128Z,0.00
2018-05-01T03:15:52.029Z,0.00
2018-05-01T03:16:52.016Z,0.00
2018-05-01T03:17:52.063Z,0.00
2018-05-01T03:18:52.064Z,0.00
2018-05-01T03:19:52.093Z,0.00
2018-05-01T03:20:52.114Z,0.00
2018-05-01T03:21:52.093Z,0.00
2018-05-01T03:22:51.994Z,0.00
2018-05-01T03:23:52.074Z,0.00
2018-05-01T03:24:52.137Z,0.00
2018-05-01T03:25:52.156Z,0.00
2018-05-01T03:26:52.127Z,0.00
2018-05-01T03:27:52.040Z,0.00
2018-05-01T03:28:52.115Z,0.00
2018-05-01T03:29:52.021Z,0.00
2018-05-01T03:30:52.001Z,0.00
2018-05-01T03:31:52.123Z,0.00
2018-05-01T03:32:52.129Z,0.00
2018-05-01T03:33:52.101Z,0.00
2018-05-01T03:34:52.033Z,0.00
2018-05-01T03:35:52.034Z,0.00
2018-05-01T03:36:52.111Z,0.00
2018-05-01T03:37:52.108Z,0.00
2018-05-01T03:38:52.111Z,0.00
2018-05-01T03:39:52.038Z,0.00
2018-05-01T03:40:52.043Z,0.00
2018-05-01T03:41:52.041Z,0.00
2018-05-01T03:42:52.110Z,0.00
2018-05-01T03:43:52.116Z,0.00
2018-05-01T03:44:52.028Z,0.00
2018-05-01T03:45:52.088Z,0.00
2018-05-01T03:46:52.113Z,0.00
2018-05-01T03:47:52.114Z,0.00
2018-05-01T03:48:52.150Z,0.00
2018-05-01T03:49:52.119Z,0.00
2018-05-01T03:50:52.105Z,0.00
2018-05-01T03:51:52.035Z,0.00
2018-05-01T03:52:52.114Z,0.00
2018-05-01T03:53:52.139Z,0.00
2018-05-01T03:54:52.120Z,0.00
2018-05-01T03:55:52.201Z,0.00
2018-05-01T03:56:52.052Z,0.00
2018-05-01T03:57:52.054Z,0.00
2018-05-01T03:58:52.122Z,0.00
2018-05-01T03:59:52.050Z,0.00
2018-05-01T04:00:52.127Z,0.00
2018-05-01T04:01:52.129Z,0.00
2018-05-01T04:02:52.051Z,0.00
2018-05-01T04:03:52.050Z,0.00
2018-05-01T04:04:52.130Z,0.00
2018-05-01T04:05:52.131Z,0.00
2018-05-01T04:06:52.052Z,0.00
2018-05-01T04:07:52.057Z,0.00
2018-05-01T04:08:52.131Z,0.00
2018-05-01T04:09:52.061Z,0.00
2018-05-01T04:10:52.131Z,0.00
2018-05-01T04:11:52.057Z,0.00
2018-05-01T04:12:52.129Z,0.00
2018-05-01T04:13:52.132Z,0.00
2018-05-01T04:14:52.065Z,0.00
2018-05-01T04:15:52.060Z,0.00
2018-05-01T04:16:52.127Z,0.00
2018-05-01T04:17:52.090Z,0.00
2018-05-01T04:18:52.061Z,0.00
2018-05-01T04:19:52.066Z,0.00
2018-05-01T04:20:52.133Z,0.00
2018-05-01T04:21:52.060Z,0.00
2018-05-01T04:22:52.131Z,0.00
2018-05-01T04:23:52.065Z,0.00
2018-05-01T04:24:52.136Z,1.00
2018-05-01T04:25:52.069Z,1.00
2018-05-01T04:26:52.134Z,1.00
2018-05-01T04:27:52.068Z,1.00
2018-05-01T04:28:52.134Z,1.00
2018-05-01T04:29:52.069Z,1.00
2018-05-01T04:30:52.137Z,1.00
2018-05-01T04:31:52.073Z,1.00
2018-05-01T04:32:52.143Z,1.00
2018-05-01T04:33:52.176Z,1.00
2018-05-01T04:34:52.169Z,1.00
2018-05-01T04:35:52.146Z,1.00
2018-05-01T04:36:52.115Z,1.00
2018-05-01T04:37:52.171Z,1.00
2018-05-01T04:38:52.096Z,2.00
2018-05-01T04:39:52.115Z,2.00
2018-05-01T04:40:52.060Z,2.00
2018-05-01T04:41:52.104Z,3.00
2018-05-01T04:42:52.124Z,3.00
2018-05-01T04:43:52.102Z,3.00
2018-05-01T04:44:52.146Z,3.00
2018-05-01T04:45:52.072Z,3.00
2018-05-01T04:46:52.146Z,3.00
2018-05-01T04:47:52.219Z,3.00
2018-05-01T04:48:52.183Z,3.00
2018-05-01T04:49:52.114Z,3.00
2018-05-01T04:50:52.131Z,3.00
2018-05-01T04:51:52.187Z,3.00
2018-05-01T04:52:52.121Z,4.00
2018-05-01T04:53:52.072Z,3.00
2018-05-01T04:54:52.059Z,3.00
2018-05-01T04:55:52.126Z,3.00
2018-05-01T04:56:52.185Z,3.00
2018-05-01T04:57:52.151Z,3.00
2018-05-01T04:58:52.187Z,3.00
2018-05-01T04:59:52.115Z,4.00
2018-05-01T05:00:52.198Z,4.00
2018-05-01T05:01:52.188Z,4.00
2018-05-01T05:02:52.156Z,5.00
2018-05-01T05:03:52.196Z,4.00
2018-05-01T05:04:52.156Z,3.00
2018-05-01T05:05:52.086Z,3.00
2018-05-01T05:06:52.160Z,3.00
2018-05-01T05:07:52.163Z,3.00
2018-05-01T05:08:52.091Z,3.00
2018-05-01T05:09:52.163Z,3.00
2018-05-01T05:10:52.099Z,2.00
2018-05-01T05:11:52.173Z,3.00
2018-05-01T05:12:52.097Z,3.00
2018-05-01T05:13:52.093Z,3.00
2018-05-01T05:14:52.070Z,3.00
2018-05-01T05:15:52.128Z,3.00
2018-05-01T05:16:52.164Z,3.00
2018-05-01T05:17:52.093Z,4.00
2018-05-01T05:18:52.190Z,4.00
2018-05-01T05:19:52.138Z,5.00
2018-05-01T05:20:52.192Z,5.00
2018-05-01T05:21:52.146Z,5.00
2018-05-01T05:22:52.169Z,5.00
2018-05-01T05:23:52.211Z,5.00
2018-05-01T05:24:52.148Z,5.00
2018-05-01T05:25:52.209Z,5.00
2018-05-01T05:26:52.191Z,5.00
2018-05-01T05:27:52.192Z,5.00
2018-05-01T05:28:52.139Z,5.00
2018-05-01T05:29:52.117Z,6.00
2018-05-01T05:30:52.145Z,7.00
2018-05-01T05:31:52.097Z,6.00
2018-05-01T05:32:52.176Z,6.00
2018-05-01T05:33:52.116Z,7.00
2018-05-01T05:34:52.158Z,7.00
2018-05-01T05:35:52.101Z,9.00
2018-05-01T05:36:52.194Z,9.00
2018-05-01T05:37:52.137Z,8.00
2018-05-01T05:38:52.118Z,9.00
2018-05-01T05:39:52.217Z,10.00
2018-05-01T05:40:52.205Z,9.00
2018-05-01T05:41:52.142Z,9.00
2018-05-01T05:42:52.182Z,8.00
2018-05-01T05:43:52.203Z,9.00
2018-05-01T05:44:52.201Z,9.00
2018-05-01T05:45:52.181Z,9.00
2018-05-01T05:46:52.150Z,9.00
2018-05-01T05:47:52.211Z,9.00
2018-05-01T05:48:52.222Z,8.00
2018-05-01T05:49:52.187Z,8.00
2018-05-01T05:50:52.159Z,8.00
2018-05-01T05:51:52.201Z,8.00
2018-05-01T05:52:52.159Z,8.00
2018-05-01T05:53:52.160Z,9.00
2018-05-01T05:54:52.121Z,9.00
2018-05-01T05:55:52.126Z,10.00
2018-05-01T05:56:52.191Z,10.00
2018-05-01T05:57:52.228Z,9.00
2018-05-01T05:58:52.190Z,9.00
2018-05-01T05:59:52.128Z,10.00
2018-05-01T06:00:52.192Z,10.00
2018-05-01T06:01:52.125Z,9.00
2018-05-01T06:02:52.128Z,9.00
2018-05-01T06:03:52.197Z,9.00
2018-05-01T06:04:52.192Z,8.00
2018-05-01T06:05:52.270Z,8.00
2018-05-01T06:06:52.154Z,8.00
2018-05-01T06:07:52.167Z,8.00
2018-05-01T06:08:52.152Z,8.00
2018-05-01T06:09:52.108Z,7.00
2018-05-01T06:10:52.172Z,7.00
2018-05-01T06:11:52.225Z,7.00
2018-05-01T06:12:52.227Z,7.00
2018-05-01T06:13:52.233Z,7.00
2018-05-01T06:14:52.134Z,7.00
2018-05-01T06:15:52.210Z,6.00
2018-05-01T06:16:52.203Z,5.00
2018-05-01T06:17:52.209Z,5.00
2018-05-01T06:18:52.140Z,5.00
2018-05-01T06:19:52.138Z,6.00
2018-05-01T06:20:52.207Z,6.00
2018-05-01T06:21:52.222Z,6.00
2018-05-01T06:22:52.212Z,5.00
2018-05-01T06:23:52.146Z,5.00
2018-05-01T06:24:52.209Z,5.00
2018-05-01T06:25:52.232Z,5.00
2018-05-01T06:26:52.212Z,5.00
2018-05-01T06:27:52.184Z,5.00
2018-05-01T06:28:52.191Z,5.00
2018-05-01T06:29:52.213Z,5.00
2018-05-01T06:30:52.252Z,5.00
2018-05-01T06:31:52.246Z,5.00
2018-05-01T06:32:52.132Z,6.00
2018-05-01T06:33:52.186Z,6.00
2018-05-01T06:34:52.146Z,6.00
2018-05-01T06:35:52.215Z,6.00
2018-05-01T06:36:52.181Z,6.00
2018-05-01T06:37:52.151Z,5.00
2018-05-01T06:38:52.152Z,5.00
2018-05-01T06:39:52.154Z,5.00
2018-05-01T06:40:52.224Z,5.00
2018-05-01T06:41:52.170Z,4.00
2018-05-01T06:42:52.225Z,4.00
2018-05-01T06:43:52.256Z,4.00
2018-05-01T06:44:52.226Z,4.00
2018-05-01T06:45:52.192Z,4.00
2018-05-01T06:46:52.233Z,4.00
2018-05-01T06:47:52.260Z,5.00
2018-05-01T06:48:52.252Z,5.00
2018-05-01T06:49:52.191Z,4.00
2018-05-01T06:50:52.307Z,4.00
2018-05-01T06:51:52.197Z,4.00
2018-05-01T06:52:52.139Z,4.00
2018-05-01T06:53:52.149Z,6.00
2018-05-01T06:54:52.228Z,7.00
2018-05-01T06:55:52.241Z,8.00
2018-05-01T06:56:52.129Z,9.00
2018-05-01T06:57:52.348Z,10.00
2018-05-01T06:58:52.249Z,10.00
2018-05-01T06:59:52.267Z,11.00
2018-05-01T07:00:52.207Z,12.00
2018-05-01T07:01:52.133Z,13.00
2018-05-01T07:02:52.210Z,14.00
2018-05-01T07:03:52.250Z,15.00
2018-05-01T07:04:52.134Z,16.00
2018-05-01T07:05:52.233Z,16.00
2018-05-01T07:06:52.270Z,16.00
2018-05-01T07:07:52.265Z,16.00
2018-05-01T07:08:52.236Z,17.00
2018-05-01T07:09:52.194Z,17.00
2018-05-01T07:10:52.210Z,17.00
2018-05-01T07:11:52.200Z,15.00
2018-05-01T07:12:52.163Z,14.00
2018-05-01T07:13:52.239Z,14.00
2018-05-01T07:14:52.272Z,14.00
2018-05-01T07:15:52.303Z,14.00
2018-05-01T07:16:52.243Z,13.00
2018-05-01T07:17:52.212Z,12.00
2018-05-01T07:18:52.218Z,12.00
2018-05-01T07:19:52.205Z,12.00
2018-05-01T07:20:52.212Z,13.00
2018-05-01T07:21:52.275Z,12.00
2018-05-01T07:22:52.273Z,12.00
2018-05-01T07:23:52.269Z,13.00
2018-05-01T07:24:52.210Z,14.00
2018-05-01T07:25:52.245Z,15.00
2018-05-01T07:26:52.272Z,14.00
2018-05-01T07:27:52.284Z,14.00
2018-05-01T07:28:52.144Z,14.00
2018-05-01T07:29:52.290Z,14.00
2018-05-01T07:30:52.157Z,14.00
2018-05-01T07:31:52.154Z,16.00
2018-05-01T07:32:52.152Z,17.00
2018-05-01T07:33:52.282Z,16.00
2018-05-01T07:34:52.274Z,16.00
2018-05-01T07:35:52.220Z,16.00
2018-05-01T07:36:52.296Z,15.00
2018-05-01T07:37:52.268Z,15.00
2018-05-01T07:38:52.192Z,16.00
2018-05-01T07:39:52.292Z,15.00
2018-05-01T07:40:52.274Z,15.00
2018-05-01T07:41:52.317Z,16.00
2018-05-01T07:42:52.219Z,17.00
2018-05-01T07:43:52.286Z,18.00
2018-05-01T07:44:52.164Z,19.00
2018-05-01T07:45:52.217Z,19.00
2018-05-01T07:46:52.218Z,18.00
2018-05-01T07:47:52.228Z,16.00
2018-05-01T07:48:52.291Z,14.00
2018-05-01T07:49:52.292Z,12.00
2018-05-01T07:50:52.170Z,11.00
2018-05-01T07:51:52.186Z,11.00
2018-05-01T07:52:52.224Z,10.00
2018-05-01T07:53:52.273Z,10.00
2018-05-01T07:54:52.257Z,10.00
2018-05-01T07:55:52.146Z,10.00
2018-05-01T07:56:52.262Z,10.00
2018-05-01T07:57:52.150Z,11.00
2018-05-01T07:58:52.157Z,12.00
2018-05-01T07:59:52.192Z,13.00
2018-05-01T08:00:52.138Z,14.00
2018-05-01T08:01:52.272Z,14.00
2018-05-01T08:02:52.276Z,13.00
2018-05-01T08:03:52.190Z,13.00
2018-05-01T08:04:52.170Z,13.00
2018-05-01T08:05:52.250Z,12.00
2018-05-01T08:06:52.234Z,11.00
2018-05-01T08:07:52.307Z,11.00
2018-05-01T08:08:52.274Z,12.00
2018-05-01T08:09:52.304Z,12.00
2018-05-01T08:10:52.183Z,12.00
2018-05-01T08:11:52.253Z,13.00
2018-05-01T08:12:52.306Z,14.00
2018-05-01T08:13:52.297Z,13.00
2018-05-01T08:14:52.320Z,12.00
2018-05-01T08:15:52.212Z,12.00
2018-05-01T08:16:52.270Z,11.00
2018-05-01T08:17:52.315Z,11.00
2018-05-01T08:18:52.274Z,11.00
2018-05-01T08:19:52.266Z,11.00
2018-05-01T08:20:52.216Z,11.00
2018-05-01T08:21:52.219Z,10.00
2018-05-01T08:22:52.171Z,9.00
2018-05-01T08:23:52.186Z,8.00
2018-05-01T08:24:52.235Z,8.00
2018-05-01T08:25:52.240Z,9.00
2018-05-01T08:26:52.321Z,9.00
2018-05-01T08:27:52.321Z,8.00
2018-05-01T08:28:52.257Z,8.00
2018-05-01T08:29:52.306Z,8.00
2018-05-01T08:30:52.207Z,8.00
2018-05-01T08:31:52.255Z,8.00
2018-05-01T08:32:52.325Z,9.00
2018-05-01T08:33:52.215Z,10.00
2018-05-01T08:34:52.317Z,11.00
2018-05-01T08:35:52.186Z,12.00
2018-05-01T08:36:52.236Z,13.00
2018-05-01T08:37:52.187Z,14.00
2018-05-01T08:38:52.143Z,14.00
2018-05-01T08:39:52.148Z,12.00
2018-05-01T08:40:52.141Z,12.00
2018-05-01T08:41:52.144Z,12.00
2018-05-01T08:42:52.149Z,12.00
2018-05-01T08:43:52.242Z,12.00
2018-05-01T08:44:52.150Z,11.00
2018-05-01T08:45:52.123Z,11.00
2018-05-01T08:46:52.233Z,11.00
2018-05-01T08:47:52.117Z,11.00
2018-05-01T08:48:52.226Z,11.00
2018-05-01T08:49:52.221Z,11.00
2018-05-01T08:50:52.126Z,11.00
2018-05-01T08:51:52.119Z,11.00
2018-05-01T08:52:52.227Z,11.00
2018-05-01T08:53:52.171Z,10.00
2018-05-01T08:54:52.233Z,10.00
2018-05-01T08:55:52.331Z,9.00
2018-05-01T08:56:52.304Z,8.00
2018-05-01T08:57:52.282Z,8.00
2018-05-01T08:58:52.362Z,7.00
2018-05-01T08:59:52.334Z,7.00
2018-05-01T09:00:52.284Z,7.00
2018-05-01T09:01:52.379Z,9.00
2018-05-01T09:02:52.279Z,11.00
2018-05-01T09:03:52.280Z,14.00
2018-05-01T09:04:52.285Z,17.00
2018-05-01T09:05:52.340Z,18.00
2018-05-01T09:06:52.207Z,18.00
2018-05-01T09:07:52.284Z,19.00
2018-05-01T09:08:52.212Z,29.00
2018-05-01T09:09:52.344Z,35.00
2018-05-01T09:10:52.275Z,24.00
2018-05-01T09:11:52.285Z,31.00
2018-05-01T09:12:52.212Z,28.00
2018-05-01T09:13:52.282Z,36.00
2018-05-01T09:14:52.271Z,34.00
2018-05-01T09:15:52.178Z,57.00
2018-05-01T09:16:52.258Z,65.00
2018-05-01T09:17:52.433Z,90.00
2018-05-01T09:18:52.249Z,62.00
2018-05-01T09:19:52.188Z,58.00
2018-05-01T09:20:52.207Z,95.00
2018-05-01T09:21:52.246Z,95.00
2018-05-01T09:22:52.249Z,75.00
2018-05-01T09:23:52.244Z,88.00
2018-05-01T09:24:52.207Z,96.00
2018-05-01T09:25:52.324Z,40.00
2018-05-01T09:26:52.329Z,39.00
2018-05-01T09:27:52.353Z,42.00
2018-05-01T09:28:52.245Z,71.00
2018-05-01T09:29:52.290Z,61.00
2018-05-01T09:30:52.235Z,30.00
2018-05-01T09:31:52.359Z,26.00
2018-05-01T09:32:52.279Z,25.00
2018-05-01T09:33:52.359Z,26.00
2018-05-01T09:34:52.358Z,30.00
2018-05-01T09:35:52.331Z,20.00
2018-05-01T09:36:52.237Z,18.00
2018-05-01T09:37:52.349Z,18.00
2018-05-01T09:38:52.301Z,18.00
2018-05-01T09:39:52.303Z,19.00
2018-05-01T09:40:52.349Z,39.00
2018-05-01T09:41:52.403Z,27.00
2018-05-01T09:42:52.350Z,34.00
2018-05-01T09:43:52.366Z,61.00
2018-05-01T09:44:52.350Z,34.00
2018-05-01T09:45:52.353Z,58.00
2018-05-01T09:46:52.364Z,75.00
2018-05-01T09:47:52.306Z,72.00
2018-05-01T09:48:52.234Z,74.00
2018-05-01T09:49:52.333Z,33.00
2018-05-01T09:50:52.312Z,69.00
2018-05-01T09:51:52.355Z,70.00
2018-05-01T09:53:52.375Z,73.00
2018-05-01T09:54:52.314Z,72.00
2018-05-01T09:55:52.276Z,74.00
2018-05-01T09:56:52.343Z,69.00
2018-05-01T09:57:52.272Z,44.00
2018-05-01T09:58:52.340Z,80.00
2018-05-01T09:59:52.278Z,79.00
2018-05-01T10:00:52.343Z,75.00
2018-05-01T10:01:52.278Z,74.00
2018-05-01T10:02:52.293Z,73.00
2018-05-01T10:03:52.345Z,71.00
2018-05-01T10:04:52.282Z,73.00
2018-05-01T10:05:52.362Z,64.00
2018-05-01T10:06:52.350Z,53.00
2018-05-01T10:07:52.309Z,48.00
2018-05-01T10:08:52.312Z,33.00
2018-05-01T10:09:52.347Z,36.00
2018-05-01T10:10:52.329Z,35.00
2018-05-01T10:11:52.275Z,43.00
2018-05-01T10:12:52.389Z,41.00
2018-05-01T10:13:52.251Z,40.00
2018-05-01T10:14:52.381Z,39.00
2018-05-01T10:15:52.330Z,39.00
2018-05-01T10:16:52.315Z,39.00
2018-05-01T10:17:52.428Z,39.00
2018-05-01T10:18:52.293Z,39.00
2018-05-01T10:19:56.756Z,39.00
2018-05-01T10:20:52.306Z,39.00
2018-05-01T10:21:52.260Z,39.00
2018-05-01T10:22:52.298Z,39.00
2018-05-01T10:23:52.267Z,39.00
2018-05-01T10:24:52.295Z,39.00
2018-05-01T10:25:52.370Z,39.00
2018-05-01T10:26:52.300Z,39.00
2018-05-01T10:27:52.295Z,39.00
2018-05-01T10:28:52.366Z,39.00
2018-05-01T10:29:52.298Z,39.00
2018-05-01T10:30:52.370Z,39.00
2018-05-01T10:31:52.378Z,39.00
2018-05-01T10:32:52.304Z,39.00
2018-05-01T10:34:52.303Z,39.00
2018-05-01T10:35:52.266Z,39.00
2018-05-01T10:36:52.362Z,39.00
2018-05-01T10:38:00.556Z,39.00
2018-05-01T10:38:52.449Z,39.00
2018-05-01T10:39:52.311Z,39.00
2018-05-01T10:40:52.248Z,39.00
2018-05-01T10:41:52.349Z,39.00
2018-05-01T10:42:52.255Z,39.00
2018-05-01T10:43:52.358Z,39.00
2018-05-01T10:44:52.331Z,39.00
2018-05-01T10:45:52.402Z,39.00
2018-05-01T10:46:52.381Z,39.00
2018-05-01T10:47:52.310Z,39.00
2018-05-01T10:48:52.398Z,39.00
2018-05-01T10:49:52.311Z,39.00
2018-05-01T10:50:52.387Z,39.00
2018-05-01T10:51:52.384Z,39.00
2018-05-01T10:52:52.387Z,39.00
2018-05-01T10:53:52.313Z,39.00
2018-05-01T10:54:52.346Z,39.00
2018-05-01T10:55:52.302Z,39.00
2018-05-01T10:56:52.300Z,39.00
2018-05-01T10:57:52.381Z,39.00
2018-05-01T10:58:52.377Z,39.00
2018-05-01T10:59:52.308Z,39.00
2018-05-01T11:00:52.304Z,39.00
2018-05-01T11:01:52.306Z,39.00
2018-05-01T11:02:52.382Z,39.00
2018-05-01T11:03:52.308Z,39.00
2018-05-01T11:04:52.310Z,39.00
2018-05-01T11:05:52.282Z,39.00
2018-05-01T11:06:52.284Z,39.00
2018-05-01T11:07:52.323Z,39.00
2018-05-01T11:08:52.325Z,39.00
2018-05-01T11:09:52.363Z,39.00
2018-05-01T11:10:52.366Z,39.00
2018-05-01T11:11:52.450Z,39.00
2018-05-01T11:12:52.328Z,39.00
2018-05-01T11:13:52.286Z,39.00
2018-05-01T11:14:52.330Z,39.00
2018-05-01T11:15:52.327Z,39.00
2018-05-01T11:16:52.399Z,39.00
2018-05-01T11:17:52.329Z,39.00
2018-05-01T11:18:52.328Z,39.00
2018-05-01T11:19:52.404Z,39.00
2018-05-01T11:20:52.327Z,39.00
2018-05-01T11:21:52.415Z,39.00
2018-05-01T11:22:52.406Z,39.00
2018-05-01T11:23:52.333Z,39.00
2018-05-01T11:24:52.334Z,39.00
2018-05-01T11:25:52.294Z,39.00
2018-05-01T11:26:52.294Z,39.00
2018-05-01T11:27:52.321Z,39.00
2018-05-01T11:28:52.395Z,39.00
2018-05-01T11:29:52.307Z,39.00
2018-05-01T11:30:52.304Z,39.00
2018-05-01T11:31:52.298Z,39.00
2018-05-01T11:32:52.302Z,39.00
2018-05-01T11:33:52.340Z,39.00
2018-05-01T11:34:52.384Z,39.00
2018-05-01T11:35:52.325Z,39.00
2018-05-01T11:36:52.326Z,39.00
2018-05-01T11:37:52.329Z,39.00
2018-05-01T11:38:52.401Z,39.00
2018-05-01T11:39:52.417Z,39.00
2018-05-01T11:40:52.329Z,39.00
2018-05-01T11:41:52.405Z,39.00
2018-05-01T11:42:52.332Z,39.00
2018-05-01T11:43:52.334Z,39.00
2018-05-01T11:44:52.426Z,39.00
2018-05-01T11:45:52.361Z,39.00
2018-05-01T11:46:52.353Z,39.00
2018-05-01T11:47:52.235Z,39.00
2018-05-01T11:48:52.261Z,39.00
2018-05-01T11:49:52.351Z,39.00
2018-05-01T11:50:52.286Z,39.00
2018-05-01T11:51:52.243Z,39.00
2018-05-01T11:52:52.283Z,39.00
2018-05-01T11:53:52.243Z,39.00
2018-05-01T11:54:52.237Z,39.00
2018-05-01T11:55:52.426Z,39.00
2018-05-01T11:56:52.428Z,39.00
2018-05-01T11:57:52.355Z,39.00
2018-05-01T11:58:52.354Z,39.00
2018-05-01T11:59:52.432Z,39.00
2018-05-01T12:00:52.441Z,39.00
2018-05-01T12:01:52.418Z,39.00
2018-05-01T12:02:52.431Z,39.00
2018-05-01T12:03:52.431Z,39.00
2018-05-01T12:04:52.432Z,39.00
2018-05-01T12:05:52.387Z,39.00
2018-05-01T12:06:52.433Z,39.00
2018-05-01T12:07:52.362Z,39.00
2018-05-01T12:08:52.439Z,39.00
2018-05-01T12:09:52.391Z,39.00
2018-05-01T12:10:52.364Z,39.00
2018-05-01T12:11:52.437Z,39.00
2018-05-01T12:12:52.450Z,39.00
2018-05-01T12:13:52.367Z,39.00
2018-05-01T12:14:52.369Z,39.00
2018-05-01T12:15:52.395Z,39.00
2018-05-01T12:16:52.449Z,39.00
2018-05-01T12:17:52.451Z,39.00
2018-05-01T12:18:52.401Z,39.00
2018-05-01T12:19:52.340Z,39.00
2018-05-01T12:20:52.333Z,39.00
2018-05-01T12:21:52.403Z,39.00
2018-05-01T12:22:52.439Z,39.00
2018-05-01T12:23:52.472Z,39.00
2018-05-01T12:24:52.395Z,39.00
2018-05-01T12:25:52.393Z,39.00
2018-05-01T12:26:52.407Z,39.00
2018-05-01T12:27:52.462Z,39.00
2018-05-01T12:28:52.464Z,39.00
2018-05-01T12:29:52.398Z,39.00
2018-05-01T12:30:52.397Z,39.00
2018-05-01T12:31:52.442Z,39.00
2018-05-01T12:32:52.399Z,39.00
2018-05-01T12:33:52.404Z,39.00
2018-05-01T12:34:52.394Z,39.00
2018-05-01T12:35:52.376Z,39.00
2018-05-01T12:36:52.602Z,39.00
2018-05-01T12:37:52.378Z,39.00
2018-05-01T12:38:52.457Z,39.00
2018-05-01T12:39:52.374Z,39.00
2018-05-01T12:40:52.445Z,39.00
2018-05-01T12:41:52.413Z,39.00
2018-05-01T12:42:52.381Z,39.00
2018-05-01T12:43:52.470Z,39.00
2018-05-01T12:44:52.447Z,39.00
2018-05-01T12:45:52.402Z,39.00
2018-05-01T12:46:52.414Z,39.00
2018-05-01T12:47:52.485Z,39.00
2018-05-01T12:48:52.421Z,39.00
2018-05-01T12:49:52.405Z,39.00
2018-05-01T12:50:52.421Z,39.00
2018-05-01T12:51:52.357Z,39.00
2018-05-01T12:52:52.484Z,39.00
2018-05-01T12:53:52.542Z,39.00
2018-05-01T12:54:52.469Z,39.00
2018-05-01T12:55:52.381Z,39.00
2018-05-01T12:56:52.454Z,39.00
2018-05-01T12:57:52.423Z,39.00
2018-05-01T12:58:52.342Z,39.00
2018-05-01T12:59:52.448Z,39.00
2018-05-01T13:00:52.426Z,39.00
2018-05-01T13:01:52.444Z,39.00
2018-05-01T13:02:52.348Z,39.00
2018-05-01T13:03:52.440Z,39.00
2018-05-01T13:04:52.449Z,39.00
2018-05-01T13:05:52.418Z,39.00
2018-05-01T13:07:52.477Z,39.00
2018-05-01T13:08:52.478Z,39.00
2018-05-01T13:09:52.426Z,39.00